Time;durP1;ratioP1;P1;durP2;ratioP2;P2;SDS_P1;SDS_P2;PMS_P1;PMS_P2;Temp;Humidity;BMP_temperature;BMP_pressure;BME280_temperature;BME280_humidity;BME280_pressure;Samples;Min_cycle;Max_cycle;Signal;HPM_P1;HPM_P2
2024/02/26 00:01:15;;;;;;;;;6.00;3.00;;;;;;;;5039830;28;45270;-82
2024/02/26 00:03:42;;;;;;;;;6.00;4.00;;;;;;;;5039723;28;45240;-81
2024/02/26 00:06:07;;;;;;;;;3.67;3.00;;;;;;;;5039666;28;45245;-81
2024/02/26 00:08:32;;;;;;;;;4.00;3.00;;;;;;;;5039547;28;45439;-82
2024/02/26 00:10:57;;;;;;;;;3.67;3.00;;;;;;;;5039444;28;45402;-81
2024/02/26 00:13:22;;;;;;;;;3.67;2.67;;;;;;;;5039616;28;45244;-81
2024/02/26 00:15:48;;;;;;;;;3.00;3.00;;;;;;;;5038733;28;45439;-81
2024/02/26 00:18:13;;;;;;;;;3.00;3.00;;;;;;;;5051354;28;45418;-81
2024/02/26 00:20:40;;;;;;;;;3.67;3.00;;;;;;;;5059001;28;45353;-81
2024/02/26 00:23:05;;;;;;;;;4.33;4.33;;;;;;;;5059087;28;45397;-81
2024/02/26 00:25:30;;;;;;;;;3.00;3.00;;;;;;;;5058732;28;45475;-81
2024/02/26 00:27:55;;;;;;;;;2.67;2.67;;;;;;;;5059177;28;46427;-81
2024/02/26 00:30:20;;;;;;;;;3.00;3.00;;;;;;;;5059622;28;45480;-81
2024/02/26 00:32:46;;;;;;;;;3.33;3.00;;;;;;;;5059662;28;45347;-81
2024/02/26 00:35:11;;;;;;;;;2.00;2.00;;;;;;;;5059323;28;45383;-82
2024/02/26 00:37:36;;;;;;;;;3.00;3.00;;;;;;;;5059261;28;45280;-82
2024/02/26 00:40:01;;;;;;;;;2.00;2.00;;;;;;;;5059440;28;45228;-82
2024/02/26 00:42:26;;;;;;;;;5.00;3.33;;;;;;;;5059443;28;45295;-81
2024/02/26 00:44:52;;;;;;;;;5.00;5.00;;;;;;;;5059401;28;45520;-82
2024/02/26 00:47:17;;;;;;;;;3.00;3.00;;;;;;;;5059416;28;46508;-81
2024/02/26 00:49:42;;;;;;;;;3.33;2.67;;;;;;;;5059409;28;45370;-81
2024/02/26 00:52:07;;;;;;;;;5.00;3.00;;;;;;;;5058973;28;45453;-82
2024/02/26 00:54:32;;;;;;;;;2.00;2.00;;;;;;;;5058413;28;45564;-81
2024/02/26 00:56:58;;;;;;;;;4.00;2.67;;;;;;;;5063256;28;46068;-82
2024/02/26 00:59:23;;;;;;;;;3.00;3.00;;;;;;;;5079374;27;45428;-82
2024/02/26 01:01:48;;;;;;;;;2.67;2.67;;;;;;;;5079213;27;45278;-82
2024/02/26 01:04:13;;;;;;;;;2.67;2.67;;;;;;;;5078216;27;45494;-81
2024/02/26 01:06:38;;;;;;;;;3.00;3.00;;;;;;;;5079101;27;45537;-81
2024/02/26 01:09:03;;;;;;;;;3.67;3.00;;;;;;;;5079397;27;45309;-81
2024/02/26 01:11:29;;;;;;;;;3.00;3.00;;;;;;;;5079117;27;45358;-82
2024/02/26 01:13:56;;;;;;;;;3.00;3.00;;;;;;;;5079406;27;45291;-81
2024/02/26 01:16:21;;;;;;;;;3.67;2.00;;;;;;;;5079166;27;46087;-81
2024/02/26 01:18:46;;;;;;;;;4.33;2.33;;;;;;;;5079233;27;45370;-82
2024/02/26 01:21:12;;;;;;;;;4.00;3.00;;;;;;;;5079874;27;45305;-81
2024/02/26 01:23:37;;;;;;;;;2.00;2.00;;;;;;;;5082710;27;45565;-81
2024/02/26 01:26:03;;;;;;;;;2.33;2.00;;;;;;;;5082612;27;46112;-82
2024/02/26 01:28:28;;;;;;;;;2.00;1.00;;;;;;;;5082229;27;45337;-81
2024/02/26 01:30:53;;;;;;;;;2.00;2.00;;;;;;;;5082746;27;45451;-81
2024/02/26 01:33:18;;;;;;;;;2.00;1.00;;;;;;;;5082441;28;45316;-82
2024/02/26 01:35:44;;;;;;;;;1.67;1.67;;;;;;;;5082247;27;45387;-81
2024/02/26 01:38:09;;;;;;;;;4.00;3.00;;;;;;;;5082509;27;45211;-82
2024/02/26 01:40:34;;;;;;;;;1.33;1.33;;;;;;;;5082631;27;45353;-81
2024/02/26 01:43:00;;;;;;;;;2.00;2.00;;;;;;;;5082168;27;45265;-81
2024/02/26 01:45:25;;;;;;;;;1.00;1.00;;;;;;;;5082397;27;45438;-82
2024/02/26 01:47:51;;;;;;;;;1.67;1.33;;;;;;;;5082537;27;45474;-82
2024/02/26 01:50:17;;;;;;;;;4.00;3.00;;;;;;;;5082374;27;45250;-81
2024/02/26 01:52:42;;;;;;;;;6.33;4.67;;;;;;;;5082020;27;45327;-82
2024/02/26 01:55:08;;;;;;;;;1.67;1.67;;;;;;;;5082147;28;46244;-81
2024/02/26 01:57:33;;;;;;;;;3.00;2.67;;;;;;;;5072214;28;45398;-82
2024/02/26 01:59:58;;;;;;;;;3.00;2.00;;;;;;;;5061914;28;45365;-81
2024/02/26 02:02:24;;;;;;;;;2.00;2.00;;;;;;;;5060292;28;45319;-81
2024/02/26 02:04:49;;;;;;;;;3.00;3.00;;;;;;;;5061577;28;45330;-81
2024/02/26 02:07:14;;;;;;;;;2.33;2.00;;;;;;;;5061804;28;45309;-82
2024/02/26 02:09:39;;;;;;;;;1.67;1.67;;;;;;;;5061782;28;45232;-82
2024/02/26 02:12:05;;;;;;;;;3.67;3.67;;;;;;;;5061012;28;45287;-82
2024/02/26 02:14:31;;;;;;;;;2.00;1.67;;;;;;;;5061710;28;45234;-82
2024/02/26 02:16:56;;;;;;;;;5.33;4.00;;;;;;;;5061559;28;45310;-82
2024/02/26 02:19:21;;;;;;;;;3.00;1.67;;;;;;;;5061500;28;45426;-82
2024/02/26 02:21:46;;;;;;;;;1.00;1.00;;;;;;;;5061538;28;45512;-81
2024/02/26 02:24:11;;;;;;;;;3.00;2.00;;;;;;;;5061108;28;46439;-82
2024/02/26 02:26:37;;;;;;;;;1.00;1.00;;;;;;;;5060245;28;45328;-82
2024/02/26 02:29:03;;;;;;;;;1.00;1.00;;;;;;;;5061237;28;45323;-82
2024/02/26 02:31:29;;;;;;;;;1.00;1.00;;;;;;;;5061348;28;45410;-81
2024/02/26 02:33:54;;;;;;;;;1.33;1.33;;;;;;;;5058363;28;47671;-81
2024/02/26 02:36:19;;;;;;;;;1.33;1.33;;;;;;;;5061193;28;45260;-81
2024/02/26 02:38:51;;;;;;;;;2.00;1.00;;;;;;;;5061352;28;45499;-81
2024/02/26 02:41:16;;;;;;;;;3.00;1.00;;;;;;;;5060925;28;45457;-81
2024/02/26 02:43:42;;;;;;;;;2.00;2.00;;;;;;;;5061207;28;46513;-81
2024/02/26 02:46:07;;;;;;;;;3.00;3.00;;;;;;;;5061259;28;45333;-81
2024/02/26 02:48:32;;;;;;;;;1.00;1.00;;;;;;;;5061402;28;45314;-81
2024/02/26 02:50:57;;;;;;;;;1.00;1.00;;;;;;;;5061118;28;45559;-81
2024/02/26 02:53:22;;;;;;;;;3.67;3.00;;;;;;;;5060727;28;45529;-81
2024/02/26 02:55:48;;;;;;;;;2.67;1.00;;;;;;;;5060767;28;45546;-82
2024/02/26 02:58:13;;;;;;;;;1.00;1.00;;;;;;;;5075875;28;45337;-81
2024/02/26 03:00:38;;;;;;;;;2.33;2.33;;;;;;;;5081193;27;45361;-81
2024/02/26 03:03:03;;;;;;;;;3.33;3.00;;;;;;;;5081100;28;45265;-81
2024/02/26 03:05:29;;;;;;;;;3.33;2.00;;;;;;;;5080895;27;45329;-81
2024/02/26 03:07:54;;;;;;;;;3.00;3.00;;;;;;;;5079936;28;45545;-81
2024/02/26 03:10:19;;;;;;;;;1.67;1.67;;;;;;;;5081008;28;45325;-81
2024/02/26 03:12:45;;;;;;;;;2.00;1.00;;;;;;;;5080579;28;45394;-81
2024/02/26 03:15:11;;;;;;;;;4.00;2.00;;;;;;;;5081107;27;45381;-81
2024/02/26 03:17:36;;;;;;;;;2.00;1.33;;;;;;;;5081107;27;45369;-81
2024/02/26 03:20:04;;;;;;;;;1.67;1.00;;;;;;;;5080794;27;45445;-81
2024/02/26 03:22:29;;;;;;;;;2.00;2.00;;;;;;;;5080760;27;46194;-81
2024/02/26 03:24:54;;;;;;;;;2.67;2.67;;;;;;;;5080770;27;45199;-82
2024/02/26 03:27:20;;;;;;;;;1.67;1.67;;;;;;;;5080411;27;45569;-82
2024/02/26 03:29:45;;;;;;;;;1.00;1.00;;;;;;;;5079530;27;45193;-81
2024/02/26 03:32:10;;;;;;;;;2.00;2.00;;;;;;;;5080604;27;46302;-81
2024/02/26 03:34:35;;;;;;;;;1.00;1.00;;;;;;;;5080801;27;45353;-81
2024/02/26 03:37:00;;;;;;;;;1.00;1.00;;;;;;;;5080713;28;45329;-81
2024/02/26 03:39:26;;;;;;;;;1.33;1.00;;;;;;;;5080640;27;45558;-81
2024/02/26 03:41:52;;;;;;;;;1.00;1.00;;;;;;;;5067866;27;45873;-82
2024/02/26 03:44:17;;;;;;;;;1.00;1.00;;;;;;;;5059925;28;45342;-81
2024/02/26 03:46:42;;;;;;;;;1.00;1.00;;;;;;;;5060430;28;45572;-81
2024/02/26 03:49:08;;;;;;;;;0.00;0.00;;;;;;;;5060173;28;45434;-81
2024/02/26 03:51:33;;;;;;;;;1.67;1.00;;;;;;;;5060093;28;45330;-81
2024/02/26 03:53:58;;;;;;;;;1.00;1.00;;;;;;;;5059927;28;45379;-81
2024/02/26 03:56:24;;;;;;;;;0.00;0.00;;;;;;;;5060048;28;45315;-81
2024/02/26 03:58:49;;;;;;;;;0.00;0.00;;;;;;;;5080064;28;45144;-81
2024/02/26 04:01:14;;;;;;;;;1.00;1.00;;;;;;;;5080225;27;45352;-82
2024/02/26 04:03:39;;;;;;;;;1.00;1.00;;;;;;;;5080402;27;45357;-82
2024/02/26 04:06:04;;;;;;;;;2.00;2.00;;;;;;;;5080365;28;45383;-82
2024/02/26 04:08:30;;;;;;;;;3.00;1.33;;;;;;;;5080123;27;45326;-81
2024/02/26 04:10:55;;;;;;;;;3.33;0.67;;;;;;;;5079973;27;45474;-81
2024/02/26 04:13:20;;;;;;;;;1.00;1.00;;;;;;;;5079865;27;45306;-81
2024/02/26 04:15:46;;;;;;;;;0.67;0.67;;;;;;;;5080210;28;45393;-81
2024/02/26 04:18:12;;;;;;;;;1.00;1.00;;;;;;;;5079920;28;45308;-81
2024/02/26 04:20:37;;;;;;;;;1.00;1.00;;;;;;;;5079799;28;46335;-81
2024/02/26 04:23:03;;;;;;;;;1.67;1.00;;;;;;;;5080118;27;45347;-81
2024/02/26 04:25:28;;;;;;;;;1.00;1.00;;;;;;;;5079942;27;45479;-81
2024/02/26 04:27:54;;;;;;;;;2.00;1.00;;;;;;;;5079509;27;45332;-81
2024/02/26 04:30:19;;;;;;;;;1.00;1.00;;;;;;;;5079718;28;45363;-81
2024/02/26 04:32:44;;;;;;;;;2.00;2.00;;;;;;;;5079924;27;45240;-81
2024/02/26 04:35:10;;;;;;;;;1.00;1.00;;;;;;;;5080071;27;45247;-81
2024/02/26 04:37:35;;;;;;;;;2.00;2.00;;;;;;;;5079695;27;45227;-81
2024/02/26 04:40:01;;;;;;;;;2.33;2.00;;;;;;;;5079835;27;45512;-81
2024/02/26 04:42:26;;;;;;;;;1.00;1.00;;;;;;;;5079477;27;45282;-81
2024/02/26 04:44:51;;;;;;;;;2.00;2.00;;;;;;;;5079989;28;45255;-82
2024/02/26 04:47:16;;;;;;;;;0.33;0.33;;;;;;;;5079839;28;45225;-80
2024/02/26 04:49:42;;;;;;;;;3.00;2.33;;;;;;;;5079540;27;45398;-80
2024/02/26 04:52:07;;;;;;;;;2.33;2.00;;;;;;;;5079535;27;45238;-80
2024/02/26 04:54:33;;;;;;;;;2.00;2.00;;;;;;;;5079133;27;45418;-80
2024/02/26 04:56:58;;;;;;;;;0.33;0.33;;;;;;;;5076107;28;45329;-80
2024/02/26 04:59:23;;;;;;;;;1.00;1.00;;;;;;;;5062783;28;45299;-80
2024/02/26 05:01:49;;;;;;;;;2.33;2.00;;;;;;;;5062913;28;45280;-80
2024/02/26 05:04:14;;;;;;;;;2.00;2.00;;;;;;;;5062807;28;45520;-81
2024/02/26 05:06:40;;;;;;;;;1.67;1.00;;;;;;;;5061325;28;45276;-81
2024/02/26 05:09:05;;;;;;;;;2.67;2.67;;;;;;;;5062510;28;45394;-81
2024/02/26 05:11:31;;;;;;;;;2.00;2.00;;;;;;;;5062248;28;45288;-82
2024/02/26 05:13:56;;;;;;;;;2.67;2.00;;;;;;;;5062633;28;45409;-83
2024/02/26 05:16:24;;;;;;;;;1.00;1.00;;;;;;;;5061701;28;45658;-83
2024/02/26 05:18:49;;;;;;;;;1.33;1.33;;;;;;;;5061549;28;45981;-84
2024/02/26 05:21:14;;;;;;;;;2.00;2.00;;;;;;;;5062374;28;45293;-84
2024/02/26 05:23:40;;;;;;;;;4.00;2.00;;;;;;;;5061240;28;45330;-85
2024/02/26 05:26:05;;;;;;;;;5.00;2.00;;;;;;;;5062411;28;45414;-81
2024/02/26 05:28:30;;;;;;;;;3.00;1.67;;;;;;;;5062276;28;45519;-82
2024/02/26 05:30:56;;;;;;;;;3.67;1.00;;;;;;;;5062355;28;45316;-83
2024/02/26 05:33:21;;;;;;;;;1.33;1.33;;;;;;;;5062360;28;45338;-82
2024/02/26 05:35:46;;;;;;;;;2.00;1.33;;;;;;;;5061929;28;45453;-82
2024/02/26 05:38:11;;;;;;;;;1.33;1.00;;;;;;;;5062098;28;45310;-82
2024/02/26 05:40:37;;;;;;;;;2.33;1.33;;;;;;;;5062280;28;45349;-83
2024/02/26 05:43:02;;;;;;;;;0.67;0.67;;;;;;;;5061794;28;45260;-82
2024/02/26 05:45:27;;;;;;;;;1.33;1.33;;;;;;;;5061826;28;45231;-82
2024/02/26 05:47:52;;;;;;;;;4.00;4.00;;;;;;;;5062207;28;45370;-82
2024/02/26 05:50:17;;;;;;;;;3.00;1.00;;;;;;;;5061155;28;45284;-82
2024/02/26 05:52:43;;;;;;;;;3.33;1.67;;;;;;;;5061906;28;45323;-84
2024/02/26 05:55:08;;;;;;;;;3.00;2.00;;;;;;;;5062138;28;45244;-84
2024/02/26 05:57:33;;;;;;;;;2.00;1.00;;;;;;;;5060653;28;48522;-80
2024/02/26 06:00:03;;;;;;;;;10.67;9.67;;;;;;;;5062012;28;45294;-77
2024/02/26 06:02:28;;;;;;;;;9.33;8.67;;;;;;;;5062206;28;45386;-77
2024/02/26 06:04:53;;;;;;;;;2.67;2.67;;;;;;;;5061720;28;45471;-78
2024/02/26 06:07:18;;;;;;;;;3.00;2.33;;;;;;;;5061200;28;45444;-79
2024/02/26 06:09:44;;;;;;;;;3.67;2.00;;;;;;;;5061915;28;45315;-78
2024/02/26 06:12:09;;;;;;;;;2.00;1.67;;;;;;;;5061685;28;45485;-79
2024/02/26 06:14:34;;;;;;;;;1.00;1.00;;;;;;;;5062675;28;45594;-76
2024/02/26 06:16:59;;;;;;;;;2.33;2.33;;;;;;;;5061408;28;45268;-76
2024/02/26 06:19:24;;;;;;;;;2.67;2.67;;;;;;;;5061501;28;45330;-76
2024/02/26 06:21:50;;;;;;;;;3.00;3.00;;;;;;;;5061767;28;45306;-77
2024/02/26 06:24:16;;;;;;;;;2.00;2.00;;;;;;;;5061485;28;45460;-77
2024/02/26 06:26:41;;;;;;;;;2.67;2.67;;;;;;;;5061211;28;45963;-76
2024/02/26 06:29:06;;;;;;;;;4.00;3.67;;;;;;;;5061376;28;45339;-76
2024/02/26 06:31:31;;;;;;;;;2.00;2.00;;;;;;;;5061300;28;45489;-76
2024/02/26 06:33:56;;;;;;;;;5.67;3.00;;;;;;;;5060954;28;45362;-76
2024/02/26 06:36:22;;;;;;;;;4.00;4.00;;;;;;;;5060225;28;46292;-77
2024/02/26 06:38:47;;;;;;;;;2.33;2.00;;;;;;;;5060652;28;45388;-76
2024/02/26 06:41:12;;;;;;;;;3.00;3.00;;;;;;;;5061192;28;45513;-77
2024/02/26 06:43:37;;;;;;;;;6.00;5.00;;;;;;;;5060759;28;45376;-76
2024/02/26 06:46:03;;;;;;;;;3.00;3.00;;;;;;;;5060676;28;45415;-76
2024/02/26 06:48:28;;;;;;;;;4.00;3.00;;;;;;;;5059977;28;45248;-76
2024/02/26 06:50:53;;;;;;;;;3.00;3.00;;;;;;;;5061246;28;45543;-76
2024/02/26 06:53:18;;;;;;;;;4.00;4.00;;;;;;;;5060868;28;45165;-76
2024/02/26 06:55:43;;;;;;;;;3.67;3.00;;;;;;;;5060448;28;45617;-76
2024/02/26 06:58:09;;;;;;;;;3.00;3.00;;;;;;;;5075140;28;45213;-76
2024/02/26 07:00:34;;;;;;;;;4.00;2.67;;;;;;;;5081536;27;45211;-78
2024/02/26 07:02:59;;;;;;;;;2.67;2.67;;;;;;;;5081335;27;45301;-76
2024/02/26 07:05:24;;;;;;;;;2.67;1.00;;;;;;;;5080982;27;46227;-76
2024/02/26 07:07:50;;;;;;;;;2.00;2.00;;;;;;;;5081365;27;45136;-77
2024/02/26 07:10:15;;;;;;;;;3.67;2.00;;;;;;;;5081075;27;45547;-76
2024/02/26 07:12:40;;;;;;;;;2.00;2.00;;;;;;;;5080749;27;45385;-77
2024/02/26 07:15:07;;;;;;;;;3.67;2.67;;;;;;;;5081065;27;45480;-76
2024/02/26 07:17:34;;;;;;;;;3.33;2.33;;;;;;;;5081103;27;45305;-76
2024/02/26 07:19:59;;;;;;;;;3.00;3.00;;;;;;;;5080256;27;45276;-77
2024/02/26 07:22:24;;;;;;;;;2.00;2.00;;;;;;;;5081005;27;45378;-77
2024/02/26 07:24:49;;;;;;;;;2.67;2.67;;;;;;;;5081048;27;45687;-77
2024/02/26 07:27:17;;;;;;;;;2.67;2.67;;;;;;;;5080605;27;45406;-77
2024/02/26 07:29:42;;;;;;;;;1.00;1.00;;;;;;;;5080980;27;45396;-77
2024/02/26 07:32:08;;;;;;;;;3.33;2.00;;;;;;;;5080765;28;45301;-77
2024/02/26 07:34:33;;;;;;;;;2.67;1.67;;;;;;;;5080564;27;45378;-77
2024/02/26 07:36:58;;;;;;;;;2.33;2.00;;;;;;;;5066288;27;45420;-77
2024/02/26 07:39:23;;;;;;;;;6.00;4.00;;;;;;;;5060382;28;45312;-77
2024/02/26 07:41:51;;;;;;;;;2.33;2.33;;;;;;;;5059448;28;45275;-77
2024/02/26 07:44:16;;;;;;;;;4.00;3.33;;;;;;;;5046988;28;45359;-77
2024/02/26 07:46:41;;;;;;;;;2.00;1.00;;;;;;;;5059779;28;45314;-77
2024/02/26 07:49:08;;;;;;;;;3.00;3.00;;;;;;;;5060024;28;45483;-78
2024/02/26 07:51:33;;;;;;;;;2.33;2.00;;;;;;;;5060135;28;45318;-77
2024/02/26 07:53:58;;;;;;;;;6.00;3.00;;;;;;;;5059171;28;46395;-77
2024/02/26 07:56:23;;;;;;;;;2.00;2.00;;;;;;;;5059521;28;45405;-78
2024/02/26 07:58:48;;;;;;;;;17.00;15.00;;;;;;;;5059604;28;45390;-76
2024/02/26 08:01:14;;;;;;;;;4.00;4.00;;;;;;;;5059510;28;45457;-76
2024/02/26 08:03:40;;;;;;;;;18.67;17.67;;;;;;;;5059174;28;46080;-76
2024/02/26 08:06:05;;;;;;;;;4.00;3.67;;;;;;;;5059377;28;45314;-77
2024/02/26 08:08:30;;;;;;;;;5.00;3.33;;;;;;;;5059678;28;45307;-76
2024/02/26 08:10:55;;;;;;;;;3.33;3.00;;;;;;;;5059474;28;45346;-76
2024/02/26 08:13:20;;;;;;;;;6.00;4.00;;;;;;;;5058994;28;46313;-76
2024/02/26 08:15:45;;;;;;;;;4.00;4.00;;;;;;;;5059737;28;45183;-76
2024/02/26 08:18:11;;;;;;;;;3.67;2.33;;;;;;;;5059311;28;45267;-77
2024/02/26 08:20:37;;;;;;;;;3.33;3.00;;;;;;;;5059016;28;45307;-76
2024/02/26 08:23:02;;;;;;;;;5.00;3.33;;;;;;;;5059550;28;46408;-76
2024/02/26 08:25:27;;;;;;;;;5.33;4.00;;;;;;;;5059291;28;45253;-77
2024/02/26 08:27:52;;;;;;;;;4.67;3.00;;;;;;;;5059581;28;45374;-76
2024/02/26 08:30:18;;;;;;;;;5.33;3.00;;;;;;;;5059529;28;45488;-76
2024/02/26 08:32:44;;;;;;;;;3.00;2.00;;;;;;;;5059359;28;45345;-77
2024/02/26 08:35:09;;;;;;;;;4.33;2.67;;;;;;;;5059482;28;45278;-76
2024/02/26 08:37:34;;;;;;;;;2.33;2.33;;;;;;;;5059388;28;45165;-76
2024/02/26 08:39:59;;;;;;;;;4.00;4.00;;;;;;;;5059272;28;45229;-76
2024/02/26 08:42:25;;;;;;;;;3.00;1.33;;;;;;;;5058549;28;45468;-76
2024/02/26 08:44:50;;;;;;;;;3.00;3.00;;;;;;;;5059554;28;45533;-77
2024/02/26 08:47:16;;;;;;;;;3.33;2.00;;;;;;;;5058553;28;45367;-78
2024/02/26 08:49:45;;;;;;;;;2.00;1.00;;;;;;;;5058626;28;45347;-79
2024/02/26 08:52:10;;;;;;;;;2.67;2.67;;;;;;;;5059283;28;46133;-79
2024/02/26 08:54:35;;;;;;;;;0.67;0.67;;;;;;;;5059050;28;45251;-79
2024/02/26 08:57:00;;;;;;;;;0.00;0.00;;;;;;;;5064085;28;45416;-79
2024/02/26 08:59:26;;;;;;;;;0.33;0.33;;;;;;;;5079600;27;45330;-79
2024/02/26 09:01:51;;;;;;;;;3.67;2.00;;;;;;;;5079465;28;45955;-78
2024/02/26 09:04:16;;;;;;;;;1.00;1.00;;;;;;;;5078036;28;45408;-77
2024/02/26 09:06:41;;;;;;;;;2.00;2.00;;;;;;;;5079644;27;45206;-80
2024/02/26 09:09:06;;;;;;;;;4.00;2.75;;;;;;;;5068363;27;45222;-79
2024/02/26 09:11:32;;;;;;;;;1.00;1.00;;;;;;;;5058616;28;46196;-78
2024/02/26 09:13:57;;;;;;;;;3.00;3.00;;;;;;;;5058437;28;45248;-78
2024/02/26 09:16:22;;;;;;;;;4.00;3.00;;;;;;;;5059051;28;45555;-77
2024/02/26 09:18:47;;;;;;;;;2.00;1.00;;;;;;;;5058662;28;45273;-79
2024/02/26 09:21:13;;;;;;;;;1.33;1.00;;;;;;;;5058660;28;46239;-79
2024/02/26 09:23:38;;;;;;;;;3.00;1.33;;;;;;;;5058422;28;45190;-79
2024/02/26 09:26:05;;;;;;;;;1.00;1.00;;;;;;;;5058675;28;45541;-79
2024/02/26 09:28:34;;;;;;;;;2.00;1.33;;;;;;;;5058747;28;45220;-78
2024/02/26 09:30:59;;;;;;;;;2.00;2.00;;;;;;;;5058451;28;46016;-78
2024/02/26 09:33:25;;;;;;;;;2.67;2.67;;;;;;;;5058324;28;45307;-78
2024/02/26 09:35:50;;;;;;;;;5.00;5.00;;;;;;;;5058541;28;45507;-78
2024/02/26 09:38:15;;;;;;;;;5.67;5.33;;;;;;;;5058677;28;45331;-79
2024/02/26 09:40:40;;;;;;;;;1.00;1.00;;;;;;;;5057858;28;45319;-79
2024/02/26 09:43:08;;;;;;;;;2.33;2.00;;;;;;;;5060255;28;45306;-79
2024/02/26 09:45:34;;;;;;;;;1.67;1.67;;;;;;;;5061866;28;45311;-77
2024/02/26 09:48:00;;;;;;;;;2.00;2.00;;;;;;;;5062000;28;45273;-77
2024/02/26 09:50:26;;;;;;;;;0.50;0.50;;;;;;;;5060747;28;45307;-77
2024/02/26 09:52:51;;;;;;;;;1.00;1.00;;;;;;;;5061498;28;45216;-77
2024/02/26 09:55:17;;;;;;;;;1.00;1.00;;;;;;;;5061935;28;45253;-77
2024/02/26 09:57:44;;;;;;;;;3.00;2.00;;;;;;;;5071481;28;45488;-77
2024/02/26 10:00:10;;;;;;;;;1.00;1.00;;;;;;;;5082063;27;45423;-77
2024/02/26 10:02:37;;;;;;;;;2.00;2.00;;;;;;;;5080542;28;45300;-77
2024/02/26 10:05:05;;;;;;;;;0.67;0.67;;;;;;;;5082242;27;45318;-78
2024/02/26 10:07:30;;;;;;;;;0.67;0.67;;;;;;;;5082072;27;45496;-78
2024/02/26 10:09:55;;;;;;;;;2.00;1.00;;;;;;;;5081824;28;45281;-77
2024/02/26 10:12:21;;;;;;;;;1.67;1.00;;;;;;;;5081313;28;45326;-76
2024/02/26 10:14:47;;;;;;;;;2.00;2.00;;;;;;;;5082118;27;45310;-76
2024/02/26 10:17:12;;;;;;;;;1.00;1.00;;;;;;;;5081719;27;45314;-76
2024/02/26 10:19:37;;;;;;;;;1.67;1.67;;;;;;;;5081180;28;45373;-77
2024/02/26 10:22:04;;;;;;;;;1.00;1.00;;;;;;;;5080682;28;45310;-76
2024/02/26 10:24:29;;;;;;;;;10.00;9.00;;;;;;;;5072566;27;45444;-76
2024/02/26 10:26:55;;;;;;;;;6.00;5.33;;;;;;;;5061151;28;45332;-76
2024/02/26 10:29:20;;;;;;;;;7.00;6.00;;;;;;;;5060511;28;46250;-77
2024/02/26 10:31:46;;;;;;;;;9.33;5.67;;;;;;;;5060299;28;45311;-77
2024/02/26 10:34:11;;;;;;;;;13.33;13.00;;;;;;;;5061374;28;45232;-76
2024/02/26 10:36:37;;;;;;;;;4.33;3.67;;;;;;;;5060983;28;45317;-76
2024/02/26 10:39:04;;;;;;;;;5.67;5.33;;;;;;;;5061158;28;46130;-76
2024/02/26 10:41:29;;;;;;;;;17.33;14.67;;;;;;;;5061048;28;45225;-76
2024/02/26 10:43:55;;;;;;;;;16.33;13.67;;;;;;;;5061380;28;45215;-77
2024/02/26 10:46:20;;;;;;;;;11.67;9.67;;;;;;;;5061134;28;45493;-79
2024/02/26 10:48:52;;;;;;;;;7.33;6.67;;;;;;;;5060903;28;45350;-78
2024/02/26 10:51:20;;;;;;;;;8.67;8.00;;;;;;;;5060751;28;45382;-78
2024/02/26 10:53:47;;;;;;;;;15.33;12.67;;;;;;;;5059960;28;45963;-78
2024/02/26 10:56:13;;;;;;;;;30.67;27.33;;;;;;;;5058637;28;47371;-79
2024/02/26 10:58:39;;;;;;;;;20.33;18.00;;;;;;;;5064234;28;46458;-79
2024/02/26 11:01:04;;;;;;;;;8.67;8.33;;;;;;;;5058758;28;45423;-78
2024/02/26 11:03:32;;;;;;;;;3.00;3.00;;;;;;;;5059213;28;45289;-80
2024/02/26 11:05:58;;;;;;;;;8.67;7.33;;;;;;;;5060363;28;45339;-78
2024/02/26 11:08:24;;;;;;;;;15.33;12.00;;;;;;;;5060205;28;45294;-78
2024/02/26 11:10:52;;;;;;;;;15.33;9.67;;;;;;;;5060068;28;45313;-78
2024/02/26 11:13:18;;;;;;;;;7.00;6.00;;;;;;;;5060094;28;45355;-77
2024/02/26 11:15:44;;;;;;;;;0.25;0.25;;;;;;;;5060325;28;45392;-78
2024/02/26 11:18:10;;;;;;;;;13.33;11.67;;;;;;;;5060261;28;45384;-78
2024/02/26 11:20:38;;;;;;;;;12.67;11.00;;;;;;;;5060145;28;45314;-79
2024/02/26 11:23:03;;;;;;;;;9.33;7.67;;;;;;;;5059826;28;45288;-79
2024/02/26 11:25:29;;;;;;;;;0.25;0.25;;;;;;;;5059902;28;45492;-79
2024/02/26 11:27:57;;;;;;;;;21.67;16.00;;;;;;;;5060007;28;45209;-80
2024/02/26 11:30:25;;;;;;;;;39.00;32.00;;;;;;;;5060268;28;45419;-79
2024/02/26 11:32:52;;;;;;;;;36.67;31.67;;;;;;;;5060529;28;45388;-78
2024/02/26 11:35:18;;;;;;;;;13.67;13.67;;;;;;;;5060143;28;45522;-79
2024/02/26 11:38:01;;;;;;;;;8.67;6.00;;;;;;;;5059884;28;45312;-78
2024/02/26 11:40:27;;;;;;;;;3.00;3.00;;;;;;;;5060176;28;45327;-78
2024/02/26 11:42:53;;;;;;;;;10.67;9.33;;;;;;;;5059909;28;45250;-78
2024/02/26 11:45:37;;;;;;;;;7.67;7.67;;;;;;;;5060376;28;45223;-78
2024/02/26 11:48:02;;;;;;;;;10.33;8.67;;;;;;;;5060077;28;46300;-78
2024/02/26 11:50:40;;;;;;;;;26.67;22.00;;;;;;;;5060016;28;45272;-79
2024/02/26 11:53:24;;;;;;;;;14.67;13.33;;;;;;;;5059407;28;45297;-79
2024/02/26 11:56:09;;;;;;;;;7.33;7.33;;;;;;;;5059061;28;45144;-79
2024/02/26 11:58:34;;;;;;;;;4.33;4.00;;;;;;;;5052032;28;46358;-78
2024/02/26 12:01:00;;;;;;;;;1.00;1.00;;;;;;;;5059383;28;45158;-79
2024/02/26 12:03:25;;;;;;;;;2.50;1.75;;;;;;;;5059629;28;45229;-80
2024/02/26 12:05:51;;;;;;;;;1.25;1.00;;;;;;;;5059020;28;45375;-79
2024/02/26 12:08:18;;;;;;;;;1.00;1.00;;;;;;;;5059678;28;45325;-79
2024/02/26 12:10:44;;;;;;;;;2.67;2.67;;;;;;;;5059477;28;45422;-78
2024/02/26 12:13:09;;;;;;;;;7.00;7.00;;;;;;;;5058974;28;45330;-79
2024/02/26 12:15:37;;;;;;;;;10.00;10.00;;;;;;;;5059495;28;45311;-79
2024/02/26 12:18:04;;;;;;;;;14.67;13.33;;;;;;;;5059757;28;45257;-78
2024/02/26 12:20:29;;;;;;;;;16.00;12.00;;;;;;;;5059508;28;45208;-79
2024/02/26 12:22:55;;;;;;;;;26.33;18.67;;;;;;;;5059862;28;45219;-77
2024/02/26 12:25:26;;;;;;;;;16.00;13.00;;;;;;;;5058853;28;45425;-77
2024/02/26 12:27:51;;;;;;;;;23.33;22.00;;;;;;;;5058338;28;45943;-77
2024/02/26 12:30:16;;;;;;;;;20.33;16.67;;;;;;;;5058129;28;45433;-78
2024/02/26 12:32:41;;;;;;;;;28.00;24.00;;;;;;;;5059171;28;45188;-76
2024/02/26 12:35:07;;;;;;;;;16.33;15.67;;;;;;;;5058927;28;45472;-76
2024/02/26 12:37:32;;;;;;;;;5.67;5.00;;;;;;;;5058339;28;45411;-76
2024/02/26 12:39:57;;;;;;;;;13.67;11.67;;;;;;;;5058534;28;45335;-78
2024/02/26 12:42:23;;;;;;;;;12.00;12.00;;;;;;;;5058364;28;45225;-77
2024/02/26 12:44:49;;;;;;;;;9.00;8.00;;;;;;;;5058929;28;45431;-77
2024/02/26 12:47:16;;;;;;;;;10.33;9.33;;;;;;;;5058486;28;45315;-77
2024/02/26 12:49:42;;;;;;;;;12.00;12.00;;;;;;;;5055546;28;45346;-76
2024/02/26 12:52:08;;;;;;;;;28.00;25.33;;;;;;;;5058321;28;45295;-77
2024/02/26 12:54:34;;;;;;;;;17.00;14.33;;;;;;;;5057733;28;45498;-76
2024/02/26 12:57:00;;;;;;;;;11.33;10.67;;;;;;;;5063007;28;45452;-76
2024/02/26 12:59:25;;;;;;;;;1.67;1.67;;;;;;;;5079398;27;45349;-76
2024/02/26 13:01:51;;;;;;;;;1.50;1.50;;;;;;;;5078422;27;45439;-76
2024/02/26 13:04:17;;;;;;;;;1.75;1.75;;;;;;;;5079009;28;45311;-76
2024/02/26 13:06:43;;;;;;;;;1.00;1.00;;;;;;;;5079438;27;45214;-76
2024/02/26 13:09:09;;;;;;;;;2.67;2.67;;;;;;;;5076953;27;45533;-76
2024/02/26 13:11:34;;;;;;;;;3.00;2.67;;;;;;;;5058544;28;45539;-76
2024/02/26 13:13:59;;;;;;;;;3.00;3.00;;;;;;;;5059030;28;45259;-76
2024/02/26 13:16:25;;;;;;;;;4.00;3.00;;;;;;;;5058230;28;45924;-76
2024/02/26 13:18:50;;;;;;;;;8.33;7.33;;;;;;;;5057650;28;45893;-75
2024/02/26 13:21:17;;;;;;;;;2.00;2.00;;;;;;;;5058252;28;45517;-75
2024/02/26 13:23:43;;;;;;;;;8.00;7.33;;;;;;;;5061508;28;45490;-75
2024/02/26 13:26:11;;;;;;;;;4.00;4.00;;;;;;;;5060668;28;45573;-76
2024/02/26 13:28:36;;;;;;;;;1.00;1.00;;;;;;;;5046249;28;45314;-76
2024/02/26 13:31:04;;;;;;;;;9.00;7.00;;;;;;;;5061784;28;45437;-76
2024/02/26 13:33:30;;;;;;;;;3.33;3.33;;;;;;;;5061333;28;45509;-76
2024/02/26 13:35:55;;;;;;;;;1.33;1.00;;;;;;;;5060447;28;48174;-76
2024/02/26 13:38:21;;;;;;;;;3.33;3.33;;;;;;;;5062203;28;45330;-75
2024/02/26 13:40:46;;;;;;;;;2.00;2.00;;;;;;;;5062296;28;45346;-76
2024/02/26 13:43:11;;;;;;;;;2.00;2.00;;;;;;;;5060213;28;45964;-76
2024/02/26 13:45:38;;;;;;;;;2.00;1.00;;;;;;;;5062234;28;46259;-75
2024/02/26 13:48:05;;;;;;;;;5.00;4.67;;;;;;;;5062404;28;45307;-75
2024/02/26 13:50:30;;;;;;;;;4.00;4.00;;;;;;;;5061939;28;45267;-76
2024/02/26 13:52:56;;;;;;;;;4.67;4.67;;;;;;;;5061590;28;45412;-77
2024/02/26 13:55:31;;;;;;;;;2.67;2.00;;;;;;;;5061967;28;45328;-76
2024/02/26 13:57:57;;;;;;;;;3.33;2.33;;;;;;;;5074848;28;45271;-76
2024/02/26 14:00:22;;;;;;;;;3.00;3.00;;;;;;;;5082106;27;45315;-76
2024/02/26 14:02:48;;;;;;;;;3.00;3.00;;;;;;;;5070690;27;46381;-76
2024/02/26 14:05:13;;;;;;;;;2.00;2.00;;;;;;;;5060949;28;46528;-77
2024/02/26 14:07:39;;;;;;;;;3.00;3.00;;;;;;;;5060792;28;45203;-76
2024/02/26 14:10:05;;;;;;;;;4.00;4.00;;;;;;;;5061202;28;45510;-76
2024/02/26 14:12:30;;;;;;;;;4.00;3.67;;;;;;;;5061469;28;45469;-76
2024/02/26 14:14:55;;;;;;;;;4.67;4.00;;;;;;;;5062011;28;45259;-75
2024/02/26 14:17:23;;;;;;;;;4.00;4.00;;;;;;;;5061253;28;45424;-75
2024/02/26 14:19:49;;;;;;;;;4.00;4.00;;;;;;;;5058876;28;45341;-76
2024/02/26 14:22:17;;;;;;;;;3.33;3.33;;;;;;;;5061045;28;45355;-76
2024/02/26 14:24:43;;;;;;;;;2.00;2.00;;;;;;;;5060268;28;45282;-76
2024/02/26 14:27:08;;;;;;;;;4.00;4.00;;;;;;;;5057885;28;45488;-76
2024/02/26 14:29:34;;;;;;;;;4.00;4.00;;;;;;;;5042139;28;45403;-75
2024/02/26 14:31:59;;;;;;;;;4.00;4.00;;;;;;;;5049657;28;45331;-76